sensor_id;sensor_type;location;lat;lon;timestamp;pressure;altitude;pressure_sealevel;temperature;humidity
77023;BME280;65952;51.440;-2.054;2023-01-15T00:01:05;98778.38;;;3.47;77.54
77023;BME280;65952;51.440;-2.054;2023-01-15T00:03:41;98790.09;;;3.45;77.82
77023;BME280;65952;51.440;-2.054;2023-01-15T00:06:07;98789.63;;;3.49;77.72
77023;BME280;65952;51.440;-2.054;2023-01-15T00:08:32;98783.19;;;3.52;77.69
77023;BME280;65952;51.440;-2.054;2023-01-15T00:11:02;98773.06;;;3.47;77.77
77023;BME280;65952;51.440;-2.054;2023-01-15T00:13:27;98771.91;;;3.50;77.58
77023;BME280;65952;51.440;-2.054;2023-01-15T00:15:53;98773.53;;;3.51;77.35
77023;BME280;65952;51.440;-2.054;2023-01-15T00:18:18;98758.25;;;3.45;76.94
77023;BME280;65952;51.440;-2.054;2023-01-15T00:20:44;98766.56;;;3.41;77.04
77023;BME280;65952;51.440;-2.054;2023-01-15T00:23:09;98762.75;;;3.44;76.83
77023;BME280;65952;51.440;-2.054;2023-01-15T00:25:55;98761.09;;;3.43;76.38
77023;BME280;65952;51.440;-2.054;2023-01-15T00:28:39;98774.19;;;3.45;76.45
77023;BME280;65952;51.440;-2.054;2023-01-15T00:31:05;98783.00;;;3.53;76.82
77023;BME280;65952;51.440;-2.054;2023-01-15T00:33:30;98772.09;;;3.56;77.71
77023;BME280;65952;51.440;-2.054;2023-01-15T00:35:56;98759.78;;;3.47;78.78
77023;BME280;65952;51.440;-2.054;2023-01-15T00:38:21;98757.97;;;3.48;79.33
77023;BME280;65952;51.440;-2.054;2023-01-15T00:40:47;98749.50;;;3.44;79.40
77023;BME280;65952;51.440;-2.054;2023-01-15T00:43:17;98738.72;;;3.46;79.50
77023;BME280;65952;51.440;-2.054;2023-01-15T00:45:43;98737.22;;;3.43;79.88
77023;BME280;65952;51.440;-2.054;2023-01-15T00:48:08;98732.88;;;3.42;79.60
77023;BME280;65952;51.440;-2.054;2023-01-15T00:50:33;98745.66;;;3.38;79.77
77023;BME280;65952;51.440;-2.054;2023-01-15T00:52:59;98744.81;;;3.30;80.07
77023;BME280;65952;51.440;-2.054;2023-01-15T00:55:24;98739.81;;;3.27;79.79
77023;BME280;65952;51.440;-2.054;2023-01-15T00:57:50;98734.63;;;3.17;79.96
77023;BME280;65952;51.440;-2.054;2023-01-15T01:00:15;98737.59;;;3.14;79.89
77023;BME280;65952;51.440;-2.054;2023-01-15T01:02:41;98734.50;;;3.18;79.58
77023;BME280;65952;51.440;-2.054;2023-01-15T01:05:06;98726.81;;;3.07;79.54
77023;BME280;65952;51.440;-2.054;2023-01-15T01:07:32;98722.50;;;3.06;79.27
77023;BME280;65952;51.440;-2.054;2023-01-15T01:09:57;98726.66;;;3.17;78.31
77023;BME280;65952;51.440;-2.054;2023-01-15T01:12:23;98724.50;;;3.12;78.36
77023;BME280;65952;51.440;-2.054;2023-01-15T01:14:48;98723.16;;;3.08;78.03
77023;BME280;65952;51.440;-2.054;2023-01-15T01:17:13;98720.81;;;3.05;78.12
77023;BME280;65952;51.440;-2.054;2023-01-15T01:19:39;98730.75;;;3.03;77.99
77023;BME280;65952;51.440;-2.054;2023-01-15T01:22:04;98728.78;;;3.05;77.79
77023;BME280;65952;51.440;-2.054;2023-01-15T01:24:29;98723.31;;;3.06;77.51
77023;BME280;65952;51.440;-2.054;2023-01-15T01:26:55;98734.09;;;3.13;77.17
77023;BME280;65952;51.440;-2.054;2023-01-15T01:29:22;98737.59;;;3.14;77.08
77023;BME280;65952;51.440;-2.054;2023-01-15T01:31:47;98733.25;;;3.04;77.46
77023;BME280;65952;51.440;-2.054;2023-01-15T01:34:15;98746.88;;;3.09;76.74
77023;BME280;65952;51.440;-2.054;2023-01-15T01:36:42;98742.75;;;3.15;76.36
77023;BME280;65952;51.440;-2.054;2023-01-15T01:39:12;98742.13;;;3.21;75.98
77023;BME280;65952;51.440;-2.054;2023-01-15T01:41:38;98742.56;;;3.17;76.13
77023;BME280;65952;51.440;-2.054;2023-01-15T01:46:58;98737.56;;;3.05;76.75
77023;BME280;65952;51.440;-2.054;2023-01-15T01:49:25;98747.69;;;3.10;76.89
77023;BME280;65952;51.440;-2.054;2023-01-15T01:51:56;98749.88;;;3.15;76.95
77023;BME280;65952;51.440;-2.054;2023-01-15T01:54:24;98739.00;;;3.26;76.21
77023;BME280;65952;51.440;-2.054;2023-01-15T01:56:51;98740.97;;;3.24;76.74
77023;BME280;65952;51.440;-2.054;2023-01-15T01:59:20;98749.09;;;3.31;76.03
77023;BME280;65952;51.440;-2.054;2023-01-15T02:01:48;98743.84;;;3.39;75.32
77023;BME280;65952;51.440;-2.054;2023-01-15T02:04:14;98743.50;;;3.42;75.24
77023;BME280;65952;51.440;-2.054;2023-01-15T02:06:42;98738.72;;;3.46;74.37
77023;BME280;65952;51.440;-2.054;2023-01-15T02:09:07;98755.78;;;3.43;74.71
77023;BME280;65952;51.440;-2.054;2023-01-15T02:11:33;98750.31;;;3.45;74.64
77023;BME280;65952;51.440;-2.054;2023-01-15T02:24:27;98739.19;;;2.98;76.08
77023;BME280;65952;51.440;-2.054;2023-01-15T02:29:30;98726.72;;;2.90;76.83
77023;BME280;65952;51.440;-2.054;2023-01-15T02:32:02;98717.59;;;2.93;76.70
77023;BME280;65952;51.440;-2.054;2023-01-15T02:34:32;98721.28;;;2.92;76.92
77023;BME280;65952;51.440;-2.054;2023-01-15T02:37:06;98717.75;;;2.83;77.13
77023;BME280;65952;51.440;-2.054;2023-01-15T02:39:36;98716.53;;;2.78;77.33
77023;BME280;65952;51.440;-2.054;2023-01-15T02:42:07;98731.31;;;2.80;77.40
77023;BME280;65952;51.440;-2.054;2023-01-15T02:44:36;98741.09;;;2.80;77.59
77023;BME280;65952;51.440;-2.054;2023-01-15T02:47:03;98748.88;;;2.81;77.64
77023;BME280;65952;51.440;-2.054;2023-01-15T02:49:29;98754.22;;;2.89;77.63
77023;BME280;65952;51.440;-2.054;2023-01-15T02:52:03;98749.75;;;2.90;77.89
77023;BME280;65952;51.440;-2.054;2023-01-15T02:54:35;98749.59;;;2.91;78.14
77023;BME280;65952;51.440;-2.054;2023-01-15T02:57:04;98751.78;;;3.04;77.73
77023;BME280;65952;51.440;-2.054;2023-01-15T02:59:45;98759.00;;;3.12;77.58
77023;BME280;65952;51.440;-2.054;2023-01-15T03:02:19;98763.78;;;3.08;78.67
77023;BME280;65952;51.440;-2.054;2023-01-15T03:07:24;98744.97;;;2.93;79.96
77023;BME280;65952;51.440;-2.054;2023-01-15T03:09:52;98741.69;;;3.00;79.94
77023;BME280;65952;51.440;-2.054;2023-01-15T03:12:27;98757.94;;;3.05;79.95
77023;BME280;65952;51.440;-2.054;2023-01-15T03:17:53;98760.88;;;2.93;80.53
77023;BME280;65952;51.440;-2.054;2023-01-15T03:20:20;98753.84;;;2.84;81.17
77023;BME280;65952;51.440;-2.054;2023-01-15T03:22:51;98741.75;;;2.82;80.78
77023;BME280;65952;51.440;-2.054;2023-01-15T03:25:24;98735.94;;;2.78;80.35
77023;BME280;65952;51.440;-2.054;2023-01-15T03:27:52;98718.16;;;2.70;81.00
77023;BME280;65952;51.440;-2.054;2023-01-15T03:30:20;98717.00;;;2.73;81.01
77023;BME280;65952;51.440;-2.054;2023-01-15T03:32:47;98713.25;;;2.75;80.79
77023;BME280;65952;51.440;-2.054;2023-01-15T03:36:04;98716.25;;;2.81;80.72
77023;BME280;65952;51.440;-2.054;2023-01-15T03:38:26;98708.78;;;2.84;81.06
77023;BME280;65952;51.440;-2.054;2023-01-15T03:46:26;98700.88;;;2.92;80.90
77023;BME280;65952;51.440;-2.054;2023-01-15T03:52:04;98691.94;;;2.93;80.27
77023;BME280;65952;51.440;-2.054;2023-01-15T03:55:14;98681.50;;;2.92;80.03
77023;BME280;65952;51.440;-2.054;2023-01-15T04:00:21;98668.03;;;2.85;80.30
77023;BME280;65952;51.440;-2.054;2023-01-15T04:02:51;98664.09;;;2.89;80.46
77023;BME280;65952;51.440;-2.054;2023-01-15T04:05:18;98648.91;;;3.00;80.21
77023;BME280;65952;51.440;-2.054;2023-01-15T04:07:46;98675.41;;;3.00;80.21
77023;BME280;65952;51.440;-2.054;2023-01-15T04:10:12;98665.59;;;2.92;80.09
77023;BME280;65952;51.440;-2.054;2023-01-15T04:12:37;98678.00;;;2.91;80.27
77023;BME280;65952;51.440;-2.054;2023-01-15T04:15:03;98675.47;;;2.82;80.35
77023;BME280;65952;51.440;-2.054;2023-01-15T04:17:29;98685.63;;;2.86;80.53
77023;BME280;65952;51.440;-2.054;2023-01-15T04:19:54;98675.84;;;2.87;80.38
77023;BME280;65952;51.440;-2.054;2023-01-15T04:22:19;98680.84;;;2.90;80.54
77023;BME280;65952;51.440;-2.054;2023-01-15T04:24:45;98679.69;;;2.92;80.28
77023;BME280;65952;51.440;-2.054;2023-01-15T04:27:10;98687.97;;;2.98;79.92
77023;BME280;65952;51.440;-2.054;2023-01-15T04:29:36;98691.66;;;3.05;79.70
77023;BME280;65952;51.440;-2.054;2023-01-15T04:32:01;98689.31;;;3.02;79.56
77023;BME280;65952;51.440;-2.054;2023-01-15T04:34:27;98685.03;;;3.09;79.45
77023;BME280;65952;51.440;-2.054;2023-01-15T04:36:55;98664.50;;;3.11;79.56
77023;BME280;65952;51.440;-2.054;2023-01-15T04:39:21;98676.16;;;3.18;79.24
77023;BME280;65952;51.440;-2.054;2023-01-15T04:41:46;98666.19;;;3.12;79.46
77023;BME280;65952;51.440;-2.054;2023-01-15T04:44:33;98665.38;;;3.20;79.27
77023;BME280;65952;51.440;-2.054;2023-01-15T04:46:58;98663.22;;;3.23;79.08
77023;BME280;65952;51.440;-2.054;2023-01-15T04:49:25;98664.72;;;3.26;79.05
77023;BME280;65952;51.440;-2.054;2023-01-15T04:51:50;98694.03;;;3.24;79.08
77023;BME280;65952;51.440;-2.054;2023-01-15T04:54:16;98683.75;;;3.21;79.92
77023;BME280;65952;51.440;-2.054;2023-01-15T04:56:47;98681.91;;;3.14;80.61
77023;BME280;65952;51.440;-2.054;2023-01-15T04:59:15;98669.47;;;3.14;80.96
77023;BME280;65952;51.440;-2.054;2023-01-15T05:01:40;98645.81;;;3.21;80.50
77023;BME280;65952;51.440;-2.054;2023-01-15T05:04:06;98636.00;;;3.13;80.59
77023;BME280;65952;51.440;-2.054;2023-01-15T05:06:32;98643.66;;;3.16;80.02
77023;BME280;65952;51.440;-2.054;2023-01-15T05:08:58;98648.59;;;3.11;79.66
77023;BME280;65952;51.440;-2.054;2023-01-15T05:11:25;98653.22;;;3.09;79.58
77023;BME280;65952;51.440;-2.054;2023-01-15T05:13:50;98637.31;;;3.09;79.51
77023;BME280;65952;51.440;-2.054;2023-01-15T05:16:21;98642.44;;;3.02;79.61
77023;BME280;65952;51.440;-2.054;2023-01-15T05:18:49;98633.97;;;2.99;79.69
77023;BME280;65952;51.440;-2.054;2023-01-15T05:21:19;98620.38;;;3.02;79.76
77023;BME280;65952;51.440;-2.054;2023-01-15T05:23:45;98608.78;;;3.03;79.74
77023;BME280;65952;51.440;-2.054;2023-01-15T05:26:11;98633.63;;;2.93;80.30
77023;BME280;65952;51.440;-2.054;2023-01-15T05:28:36;98639.91;;;2.92;80.48
77023;BME280;65952;51.440;-2.054;2023-01-15T05:31:13;98619.06;;;2.98;80.36
77023;BME280;65952;51.440;-2.054;2023-01-15T05:33:39;98622.91;;;3.12;79.93
77023;BME280;65952;51.440;-2.054;2023-01-15T05:36:08;98624.09;;;3.17;79.66
77023;BME280;65952;51.440;-2.054;2023-01-15T05:38:34;98619.78;;;3.16;79.68
77023;BME280;65952;51.440;-2.054;2023-01-15T05:41:03;98614.66;;;3.15;79.74
77023;BME280;65952;51.440;-2.054;2023-01-15T05:43:48;98608.84;;;3.11;80.08
77023;BME280;65952;51.440;-2.054;2023-01-15T05:46:14;98622.59;;;3.15;80.02
77023;BME280;65952;51.440;-2.054;2023-01-15T05:48:39;98620.75;;;3.15;80.05
77023;BME280;65952;51.440;-2.054;2023-01-15T05:51:05;98609.50;;;3.21;79.67
77023;BME280;65952;51.440;-2.054;2023-01-15T05:53:30;98600.06;;;3.19;80.12
77023;BME280;65952;51.440;-2.054;2023-01-15T05:56:04;98607.34;;;3.17;80.18
77023;BME280;65952;51.440;-2.054;2023-01-15T05:58:30;98606.19;;;3.19;80.21
77023;BME280;65952;51.440;-2.054;2023-01-15T06:00:56;98602.22;;;3.23;79.65
77023;BME280;65952;51.440;-2.054;2023-01-15T06:03:23;98606.53;;;3.24;79.68
77023;BME280;65952;51.440;-2.054;2023-01-15T06:05:57;98597.44;;;3.27;79.54
77023;BME280;65952;51.440;-2.054;2023-01-15T06:08:22;98616.00;;;3.27;79.58
77023;BME280;65952;51.440;-2.054;2023-01-15T06:10:49;98600.25;;;3.34;79.44
77023;BME280;65952;51.440;-2.054;2023-01-15T06:13:15;98606.06;;;3.37;79.58
77023;BME280;65952;51.440;-2.054;2023-01-15T06:15:41;98623.66;;;3.38;79.45
77023;BME280;65952;51.440;-2.054;2023-01-15T06:18:07;98614.66;;;3.39;79.69
77023;BME280;65952;51.440;-2.054;2023-01-15T06:20:39;98615.19;;;3.43;79.48
77023;BME280;65952;51.440;-2.054;2023-01-15T06:23:05;98616.66;;;3.46;79.86
77023;BME280;65952;51.440;-2.054;2023-01-15T06:25:37;98618.34;;;3.47;80.03
77023;BME280;65952;51.440;-2.054;2023-01-15T06:28:03;98616.19;;;3.50;80.40
77023;BME280;65952;51.440;-2.054;2023-01-15T06:30:29;98626.47;;;3.45;81.42
77023;BME280;65952;51.440;-2.054;2023-01-15T06:32:54;98621.31;;;3.52;81.80
77023;BME280;65952;51.440;-2.054;2023-01-15T06:35:20;98643.06;;;3.55;81.62
77023;BME280;65952;51.440;-2.054;2023-01-15T06:37:48;98611.88;;;3.57;81.60
77023;BME280;65952;51.440;-2.054;2023-01-15T06:40:13;98612.53;;;3.60;81.76
77023;BME280;65952;51.440;-2.054;2023-01-15T06:42:39;98610.56;;;3.62;81.91
77023;BME280;65952;51.440;-2.054;2023-01-15T06:45:23;98627.47;;;3.52;82.01
77023;BME280;65952;51.440;-2.054;2023-01-15T06:48:07;98634.91;;;3.57;82.67
77023;BME280;65952;51.440;-2.054;2023-01-15T06:50:32;98636.25;;;3.53;82.73
77023;BME280;65952;51.440;-2.054;2023-01-15T06:52:57;98634.59;;;3.52;82.59
77023;BME280;65952;51.440;-2.054;2023-01-15T06:55:23;98635.56;;;3.51;82.72
77023;BME280;65952;51.440;-2.054;2023-01-15T06:57:48;98633.25;;;3.48;83.01
77023;BME280;65952;51.440;-2.054;2023-01-15T07:00:14;98624.97;;;3.42;83.05
77023;BME280;65952;51.440;-2.054;2023-01-15T07:02:40;98626.13;;;3.40;83.02
77023;BME280;65952;51.440;-2.054;2023-01-15T07:05:07;98623.47;;;3.40;82.96
77023;BME280;65952;51.440;-2.054;2023-01-15T07:07:33;98621.44;;;3.25;83.26
77023;BME280;65952;51.440;-2.054;2023-01-15T07:09:59;98623.09;;;3.18;83.78
77023;BME280;65952;51.440;-2.054;2023-01-15T07:12:24;98616.31;;;3.16;84.10
77023;BME280;65952;51.440;-2.054;2023-01-15T07:14:50;98616.13;;;3.17;83.99
77023;BME280;65952;51.440;-2.054;2023-01-15T07:17:15;98603.88;;;3.24;84.06
77023;BME280;65952;51.440;-2.054;2023-01-15T07:19:41;98609.53;;;3.30;83.69
77023;BME280;65952;51.440;-2.054;2023-01-15T07:22:08;98610.53;;;3.29;83.82
77023;BME280;65952;51.440;-2.054;2023-01-15T07:24:34;98602.41;;;3.30;83.72
77023;BME280;65952;51.440;-2.054;2023-01-15T07:26:59;98609.84;;;3.27;83.71
77023;BME280;65952;51.440;-2.054;2023-01-15T07:29:25;98618.16;;;3.23;83.91
77023;BME280;65952;51.440;-2.054;2023-01-15T07:31:51;98618.16;;;3.23;83.92
77023;BME280;65952;51.440;-2.054;2023-01-15T07:34:16;98628.75;;;3.32;84.04
77023;BME280;65952;51.440;-2.054;2023-01-15T07:36:42;98647.31;;;3.32;84.26
77023;BME280;65952;51.440;-2.054;2023-01-15T07:39:09;98647.66;;;3.37;84.36
77023;BME280;65952;51.440;-2.054;2023-01-15T07:41:35;98646.03;;;3.44;84.32
77023;BME280;65952;51.440;-2.054;2023-01-15T07:44:19;98635.25;;;3.54;84.64
77023;BME280;65952;51.440;-2.054;2023-01-15T07:47:19;98626.47;;;3.53;84.47
77023;BME280;65952;51.440;-2.054;2023-01-15T07:50:06;98633.44;;;3.54;84.52
77023;BME280;65952;51.440;-2.054;2023-01-15T07:52:32;98631.94;;;3.44;84.46
77023;BME280;65952;51.440;-2.054;2023-01-15T07:54:57;98641.38;;;3.38;84.68
77023;BME280;65952;51.440;-2.054;2023-01-15T07:57:23;98623.31;;;3.50;83.66
77023;BME280;65952;51.440;-2.054;2023-01-15T07:59:49;98625.13;;;3.49;83.15
77023;BME280;65952;51.440;-2.054;2023-01-15T08:02:15;98619.16;;;3.39;83.25
77023;BME280;65952;51.440;-2.054;2023-01-15T08:04:41;98611.53;;;3.44;83.35
77023;BME280;65952;51.440;-2.054;2023-01-15T08:07:07;98617.66;;;3.36;83.51
77023;BME280;65952;51.440;-2.054;2023-01-15T08:09:32;98626.13;;;3.40;83.48
77023;BME280;65952;51.440;-2.054;2023-01-15T08:11:59;98629.59;;;3.32;83.88
77023;BME280;65952;51.440;-2.054;2023-01-15T08:14:44;98631.91;;;3.35;83.89
77023;BME280;65952;51.440;-2.054;2023-01-15T08:17:29;98625.13;;;3.41;83.31
77023;BME280;65952;51.440;-2.054;2023-01-15T08:19:55;98630.91;;;3.45;83.44
77023;BME280;65952;51.440;-2.054;2023-01-15T08:22:20;98626.97;;;3.49;83.43
77023;BME280;65952;51.440;-2.054;2023-01-15T08:24:45;98618.50;;;3.45;83.65
77023;BME280;65952;51.440;-2.054;2023-01-15T08:27:11;98635.56;;;3.51;83.95
77023;BME280;65952;51.440;-2.054;2023-01-15T08:29:38;98629.78;;;3.55;84.24
77023;BME280;65952;51.440;-2.054;2023-01-15T08:32:04;98615.34;;;3.58;84.02
77023;BME280;65952;51.440;-2.054;2023-01-15T08:34:29;98617.38;;;3.56;84.03
77023;BME280;65952;51.440;-2.054;2023-01-15T08:36:55;98624.66;;;3.54;83.98
77023;BME280;65952;51.440;-2.054;2023-01-15T08:39:25;98627.63;;;3.59;83.70
77023;BME280;65952;51.440;-2.054;2023-01-15T08:41:51;98627.47;;;3.61;83.77
77023;BME280;65952;51.440;-2.054;2023-01-15T08:44:16;98626.16;;;3.56;83.91
77023;BME280;65952;51.440;-2.054;2023-01-15T08:46:42;98624.66;;;3.54;84.06
77023;BME280;65952;51.440;-2.054;2023-01-15T08:49:10;98637.41;;;3.50;84.27
77023;BME280;65952;51.440;-2.054;2023-01-15T08:51:35;98638.22;;;3.51;84.37
77023;BME280;65952;51.440;-2.054;2023-01-15T08:54:01;98645.88;;;3.54;84.18
77023;BME280;65952;51.440;-2.054;2023-01-15T08:56:26;98647.38;;;3.56;83.96
77023;BME280;65952;51.440;-2.054;2023-01-15T08:58:52;98646.03;;;3.61;83.77
77023;BME280;65952;51.440;-2.054;2023-01-15T09:01:17;98655.00;;;3.60;83.84
77023;BME280;65952;51.440;-2.054;2023-01-15T09:03:43;98661.00;;;3.70;83.42
77023;BME280;65952;51.440;-2.054;2023-01-15T09:06:09;98671.78;;;3.77;82.95
77023;BME280;65952;51.440;-2.054;2023-01-15T09:08:38;98667.47;;;3.92;81.96
77023;BME280;65952;51.440;-2.054;2023-01-15T09:11:05;98683.22;;;3.94;81.87
77023;BME280;65952;51.440;-2.054;2023-01-15T09:13:31;98689.22;;;4.04;81.39
77023;BME280;65952;51.440;-2.054;2023-01-15T09:16:01;98695.34;;;4.04;81.83
77023;BME280;65952;51.440;-2.054;2023-01-15T09:18:27;98691.22;;;4.10;81.08
77023;BME280;65952;51.440;-2.054;2023-01-15T09:20:52;98698.16;;;4.36;80.05
77023;BME280;65952;51.440;-2.054;2023-01-15T09:23:18;98705.69;;;4.80;78.33
77023;BME280;65952;51.440;-2.054;2023-01-15T09:26:00;98699.06;;;4.84;77.60
77023;BME280;65952;51.440;-2.054;2023-01-15T09:28:27;98699.91;;;4.77;78.29
77023;BME280;65952;51.440;-2.054;2023-01-15T09:30:53;98706.72;;;4.71;78.24
77023;BME280;65952;51.440;-2.054;2023-01-15T09:33:19;98703.13;;;4.55;78.63
77023;BME280;65952;51.440;-2.054;2023-01-15T09:35:44;98694.81;;;4.42;79.89
77023;BME280;65952;51.440;-2.054;2023-01-15T09:38:18;98699.66;;;4.30;80.52
77023;BME280;65952;51.440;-2.054;2023-01-15T09:40:50;98675.25;;;4.18;80.08
77023;BME280;65952;51.440;-2.054;2023-01-15T09:47:10;98685.22;;;4.08;80.70
77023;BME280;65952;51.440;-2.054;2023-01-15T09:57:26;98717.94;;;4.00;82.09
77023;BME280;65952;51.440;-2.054;2023-01-15T09:59:52;98714.41;;;4.00;82.30
77023;BME280;65952;51.440;-2.054;2023-01-15T10:02:33;98710.44;;;3.96;82.46
77023;BME280;65952;51.440;-2.054;2023-01-15T10:05:21;98718.25;;;3.97;82.63
77023;BME280;65952;51.440;-2.054;2023-01-15T10:08:10;98705.78;;;4.06;82.19
77023;BME280;65952;51.440;-2.054;2023-01-15T10:10:51;98733.88;;;4.17;81.76
77023;BME280;65952;51.440;-2.054;2023-01-15T10:13:29;98732.38;;;4.31;81.42
77023;BME280;65952;51.440;-2.054;2023-01-15T10:15:56;98734.13;;;4.71;79.96
77023;BME280;65952;51.440;-2.054;2023-01-15T10:18:23;98733.72;;;5.08;78.40
77023;BME280;65952;51.440;-2.054;2023-01-15T10:29:44;98738.44;;;6.76;71.36
77023;BME280;65952;51.440;-2.054;2023-01-15T10:32:45;98746.31;;;6.55;71.99
77023;BME280;65952;51.440;-2.054;2023-01-15T10:40:50;98763.56;;;5.66;76.36
77023;BME280;65952;51.440;-2.054;2023-01-15T10:43:37;98755.81;;;5.56;77.13
77023;BME280;65952;51.440;-2.054;2023-01-15T10:46:14;98768.16;;;5.49;77.31
77023;BME280;65952;51.440;-2.054;2023-01-15T10:48:45;98763.00;;;5.47;77.35
77023;BME280;65952;51.440;-2.054;2023-01-15T10:51:20;98770.31;;;5.53;77.51
77023;BME280;65952;51.440;-2.054;2023-01-15T10:56:27;98755.22;;;5.37;77.75
77023;BME280;65952;51.440;-2.054;2023-01-15T11:01:29;98747.91;;;5.40;75.79
77023;BME280;65952;51.440;-2.054;2023-01-15T11:03:55;98750.41;;;5.33;75.90
77023;BME280;65952;51.440;-2.054;2023-01-15T11:06:22;98755.28;;;5.21;75.92
77023;BME280;65952;51.440;-2.054;2023-01-15T11:08:55;98752.16;;;5.17;76.32
77023;BME280;65952;51.440;-2.054;2023-01-15T11:11:42;98743.75;;;5.37;75.27
77023;BME280;65952;51.440;-2.054;2023-01-15T11:14:41;98746.47;;;5.20;75.44
77023;BME280;65952;51.440;-2.054;2023-01-15T11:20:42;98737.47;;;5.30;75.63
77023;BME280;65952;51.440;-2.054;2023-01-15T11:23:13;98756.34;;;5.51;75.72
77023;BME280;65952;51.440;-2.054;2023-01-15T11:25:56;98756.44;;;5.66;75.73
77023;BME280;65952;51.440;-2.054;2023-01-15T11:28:35;98758.09;;;5.67;76.19
77023;BME280;65952;51.440;-2.054;2023-01-15T11:31:04;98755.91;;;5.40;77.21
77023;BME280;65952;51.440;-2.054;2023-01-15T11:33:30;98750.88;;;5.45;76.98
77023;BME280;65952;51.440;-2.054;2023-01-15T11:35:58;98748.06;;;5.38;77.77
77023;BME280;65952;51.440;-2.054;2023-01-15T11:38:26;98752.44;;;5.31;78.14
77023;BME280;65952;51.440;-2.054;2023-01-15T11:40:58;98754.81;;;5.17;78.58
77023;BME280;65952;51.440;-2.054;2023-01-15T11:43:26;98758.50;;;5.08;79.49
77023;BME280;65952;51.440;-2.054;2023-01-15T11:46:31;98748.19;;;4.97;79.49
77023;BME280;65952;51.440;-2.054;2023-01-15T11:49:17;98746.41;;;4.89;78.17
77023;BME280;65952;51.440;-2.054;2023-01-15T11:52:04;98726.50;;;4.68;77.45
77023;BME280;65952;51.440;-2.054;2023-01-15T11:54:31;98723.72;;;4.53;77.76
77023;BME280;65952;51.440;-2.054;2023-01-15T11:57:01;98720.56;;;4.50;78.34
77023;BME280;65952;51.440;-2.054;2023-01-15T11:59:27;98700.16;;;4.50;78.58
77023;BME280;65952;51.440;-2.054;2023-01-15T12:01:55;98693.66;;;4.45;79.60
77023;BME280;65952;51.440;-2.054;2023-01-15T12:04:32;98701.63;;;4.45;79.53
77023;BME280;65952;51.440;-2.054;2023-01-15T12:06:59;98700.81;;;4.44;79.46
77023;BME280;65952;51.440;-2.054;2023-01-15T12:12:43;98693.84;;;4.43;80.23
77023;BME280;65952;51.440;-2.054;2023-01-15T12:15:32;98689.88;;;4.39;80.37
77023;BME280;65952;51.440;-2.054;2023-01-15T12:18:10;98692.00;;;4.44;80.25
77023;BME280;65952;51.440;-2.054;2023-01-15T12:21:47;98693.31;;;4.56;79.78
77023;BME280;65952;51.440;-2.054;2023-01-15T12:24:17;98702.09;;;4.65;79.73
77023;BME280;65952;51.440;-2.054;2023-01-15T12:32:13;98692.66;;;5.10;78.65
77023;BME280;65952;51.440;-2.054;2023-01-15T12:34:49;98694.84;;;5.38;78.41
77023;BME280;65952;51.440;-2.054;2023-01-15T12:37:20;98690.16;;;5.72;77.87
77023;BME280;65952;51.440;-2.054;2023-01-15T12:42:45;98684.31;;;6.38;75.73
77023;BME280;65952;51.440;-2.054;2023-01-15T12:45:45;98680.06;;;6.52;75.16
77023;BME280;65952;51.440;-2.054;2023-01-15T12:48:19;98673.97;;;6.73;74.46
77023;BME280;65952;51.440;-2.054;2023-01-15T12:50:47;98677.09;;;6.91;73.67
77023;BME280;65952;51.440;-2.054;2023-01-15T12:53:18;98675.97;;;7.15;72.03
77023;BME280;65952;51.440;-2.054;2023-01-15T12:59:04;98663.78;;;6.91;71.39
77023;BME280;65952;51.440;-2.054;2023-01-15T13:01:48;98668.09;;;6.92;72.54
77023;BME280;65952;51.440;-2.054;2023-01-15T13:07:25;98647.72;;;7.21;70.98
77023;BME280;65952;51.440;-2.054;2023-01-15T13:10:01;98649.94;;;7.18;71.11
77023;BME280;65952;51.440;-2.054;2023-01-15T13:12:32;98640.78;;;7.27;70.93
77023;BME280;65952;51.440;-2.054;2023-01-15T13:14:57;98655.00;;;7.27;70.43
77023;BME280;65952;51.440;-2.054;2023-01-15T13:17:48;98657.03;;;6.95;70.43
77023;BME280;65952;51.440;-2.054;2023-01-15T13:20:30;98679.22;;;6.51;72.49
77023;BME280;65952;51.440;-2.054;2023-01-15T13:25:52;98666.41;;;5.39;72.95
77023;BME280;65952;51.440;-2.054;2023-01-15T13:34:15;98655.47;;;4.94;75.39
77023;BME280;65952;51.440;-2.054;2023-01-15T13:36:45;98663.47;;;4.94;76.03
77023;BME280;65952;51.440;-2.054;2023-01-15T13:39:19;98646.53;;;4.86;76.26
77023;BME280;65952;51.440;-2.054;2023-01-15T13:41:50;98650.09;;;4.62;77.01
77023;BME280;65952;51.440;-2.054;2023-01-15T13:44:46;98646.44;;;4.63;77.88
77023;BME280;65952;51.440;-2.054;2023-01-15T13:47:16;98651.78;;;4.55;79.08
77023;BME280;65952;51.440;-2.054;2023-01-15T13:49:49;98647.13;;;4.57;79.30
77023;BME280;65952;51.440;-2.054;2023-01-15T13:52:28;98645.47;;;4.64;79.24
77023;BME280;65952;51.440;-2.054;2023-01-15T13:54:58;98638.44;;;4.71;79.87
77023;BME280;65952;51.440;-2.054;2023-01-15T13:57:36;98637.47;;;4.64;80.28
77023;BME280;65952;51.440;-2.054;2023-01-15T14:00:35;98635.94;;;4.70;80.86
77023;BME280;65952;51.440;-2.054;2023-01-15T14:03:28;98631.25;;;4.80;80.69
77023;BME280;65952;51.440;-2.054;2023-01-15T14:06:06;98625.13;;;4.80;80.20
77023;BME280;65952;51.440;-2.054;2023-01-15T14:11:02;98620.09;;;4.93;79.45
77023;BME280;65952;51.440;-2.054;2023-01-15T14:13:37;98618.94;;;4.87;79.74
77023;BME280;65952;51.440;-2.054;2023-01-15T14:19:16;98616.38;;;5.02;79.53
77023;BME280;65952;51.440;-2.054;2023-01-15T14:27:12;98604.53;;;5.13;79.89
77023;BME280;65952;51.440;-2.054;2023-01-15T14:30:08;98608.78;;;5.23;78.92
77023;BME280;65952;51.440;-2.054;2023-01-15T14:32:54;98600.44;;;5.26;78.17
77023;BME280;65952;51.440;-2.054;2023-01-15T14:35:23;98604.28;;;5.23;78.13
77023;BME280;65952;51.440;-2.054;2023-01-15T14:37:53;98601.97;;;5.20;77.99
77023;BME280;65952;51.440;-2.054;2023-01-15T14:40:25;98601.81;;;5.21;78.03
77023;BME280;65952;51.440;-2.054;2023-01-15T14:42:54;98609.00;;;5.13;78.05
77023;BME280;65952;51.440;-2.054;2023-01-15T14:45:33;98609.09;;;5.28;77.78
77023;BME280;65952;51.440;-2.054;2023-01-15T14:48:05;98611.25;;;5.24;77.52
77023;BME280;65952;51.440;-2.054;2023-01-15T14:50:41;98605.47;;;5.20;77.93
77023;BME280;65952;51.440;-2.054;2023-01-15T14:53:29;98603.16;;;5.17;77.69
77023;BME280;65952;51.440;-2.054;2023-01-15T15:01:50;98606.31;;;5.21;77.83
77023;BME280;65952;51.440;-2.054;2023-01-15T15:06:54;98595.38;;;5.16;77.96
77023;BME280;65952;51.440;-2.054;2023-01-15T15:09:25;98587.22;;;5.17;77.54
77023;BME280;65952;51.440;-2.054;2023-01-15T15:11:53;98591.22;;;5.13;77.65